createdAt,value
2022-12-04T00:00:27.311Z,99.53
2022-12-04T00:03:30.614Z,99.66
2022-12-04T00:06:36.607Z,99.66
2022-12-04T00:09:40.094Z,99.72
2022-12-04T00:12:42.893Z,99.75
2022-12-04T00:15:45.706Z,99.55
2022-12-04T00:18:48.969Z,99.65
2022-12-04T00:21:52.673Z,99.60
2022-12-04T00:24:55.179Z,99.57
2022-12-04T00:27:58.436Z,99.62
2022-12-04T00:31:04.600Z,99.62
2022-12-04T00:34:08.521Z,99.58
2022-12-04T00:37:11.940Z,99.57
2022-12-04T00:40:15.037Z,99.67
2022-12-04T00:43:17.871Z,99.59
2022-12-04T00:46:22.346Z,99.57
2022-12-04T00:49:24.926Z,99.63
2022-12-04T00:52:28.436Z,99.59
2022-12-04T00:55:31.724Z,99.67
2022-12-04T00:58:36.106Z,99.66
2022-12-04T01:01:40.727Z,99.53
2022-12-04T01:04:44.522Z,99.42
2022-12-04T01:07:47.212Z,99.45
2022-12-04T01:10:51.047Z,99.45
2022-12-04T01:13:54.015Z,99.44
2022-12-04T01:16:57.632Z,99.43
2022-12-04T01:20:01.792Z,99.38
2022-12-04T01:23:05.111Z,99.37
2022-12-04T01:26:07.993Z,99.33
2022-12-04T01:29:15.562Z,99.22
2022-12-04T01:32:18.268Z,99.30
2022-12-04T01:35:21.496Z,99.27
2022-12-04T01:38:25.303Z,99.38
2022-12-04T01:41:32.016Z,99.61
2022-12-04T01:44:34.835Z,99.70
2022-12-04T01:47:37.794Z,99.76
2022-12-04T01:50:42.355Z,99.92
2022-12-04T01:53:56.173Z,99.96
2022-12-04T01:57:21.395Z,100.00
2022-12-04T02:00:24.933Z,100.00
2022-12-04T02:03:30.249Z,100.00
2022-12-04T02:06:33.591Z,100.00
2022-12-04T02:09:39.476Z,100.00
2022-12-04T02:12:51.345Z,100.00
2022-12-04T02:15:58.973Z,100.00
2022-12-04T02:19:35.996Z,100.00
2022-12-04T02:22:53.963Z,100.00
2022-12-04T02:26:02.447Z,100.00
2022-12-04T02:29:17.559Z,100.00
2022-12-04T02:32:31.133Z,100.00
2022-12-04T02:35:45.946Z,100.00
2022-12-04T02:39:05.696Z,100.00
2022-12-04T02:42:12.970Z,100.00
2022-12-04T02:45:22.291Z,100.00
2022-12-04T02:48:28.495Z,100.00
2022-12-04T02:51:36.578Z,100.00
2022-12-04T02:54:45.966Z,100.00
2022-12-04T02:57:53.836Z,100.00
2022-12-04T03:00:59.704Z,100.00
2022-12-04T03:04:27.364Z,100.00
2022-12-04T03:07:58.771Z,100.00
2022-12-04T03:11:02.222Z,100.00
2022-12-04T03:14:20.993Z,100.00
2022-12-04T03:17:31.404Z,100.00
2022-12-04T03:20:39.180Z,100.00
2022-12-04T03:23:48.176Z,100.00
2022-12-04T03:27:03.823Z,100.00
2022-12-04T03:30:12.548Z,100.00
2022-12-04T03:33:19.714Z,100.00
2022-12-04T03:36:28.341Z,100.00
2022-12-04T03:39:38.473Z,100.00
2022-12-04T03:43:16.510Z,100.00
2022-12-04T03:46:41.165Z,100.00
2022-12-04T03:50:08.055Z,100.00
2022-12-04T03:53:49.656Z,100.00
2022-12-04T03:56:57.241Z,100.00
2022-12-04T04:00:13.062Z,100.00
2022-12-04T04:03:21.344Z,100.00
2022-12-04T04:06:40.389Z,100.00
2022-12-04T04:09:47.714Z,100.00
2022-12-04T04:13:21.175Z,100.00
2022-12-04T04:16:47.189Z,100.00
2022-12-04T04:20:15.408Z,100.00
2022-12-04T04:23:38.688Z,100.00
2022-12-04T04:26:50.395Z,100.00
2022-12-04T04:29:54.075Z,100.00
2022-12-04T04:33:16.822Z,100.00
2022-12-04T04:36:33.165Z,100.00
2022-12-04T04:39:38.601Z,100.00
2022-12-04T04:42:54.550Z,100.00
2022-12-04T04:46:04.652Z,100.00
2022-12-04T04:49:12.345Z,100.00
2022-12-04T04:52:18.589Z,100.00
2022-12-04T04:55:22.609Z,100.00
2022-12-04T04:58:25.777Z,100.00
2022-12-04T05:01:29.042Z,100.00
2022-12-04T05:04:31.819Z,100.00
2022-12-04T05:07:35.492Z,100.00
2022-12-04T05:10:38.646Z,100.00
2022-12-04T05:13:44.051Z,100.00
2022-12-04T05:16:47.761Z,100.00
2022-12-04T05:19:54.233Z,99.94
2022-12-04T05:22:57.388Z,99.90
2022-12-04T05:26:02.177Z,99.94
2022-12-04T05:29:04.848Z,99.91
2022-12-04T05:32:08.331Z,99.83
2022-12-04T05:35:11.906Z,99.74
2022-12-04T05:38:14.927Z,99.76
2022-12-04T05:41:18.263Z,99.79
2022-12-04T05:44:21.518Z,99.87
2022-12-04T05:47:25.543Z,99.87
2022-12-04T05:50:32.505Z,99.89
2022-12-04T05:53:45.167Z,99.92
2022-12-04T05:56:48.568Z,99.97
2022-12-04T05:59:51.579Z,99.98
2022-12-04T06:02:54.582Z,100.00
2022-12-04T06:05:58.376Z,100.00
2022-12-04T06:09:01.713Z,100.00
2022-12-04T06:12:07.514Z,100.00
2022-12-04T06:15:11.469Z,100.00
2022-12-04T06:18:14.162Z,100.00
2022-12-04T06:21:19.369Z,100.00
2022-12-04T06:24:28.305Z,100.00
2022-12-04T06:27:35.812Z,100.00
2022-12-04T06:30:42.457Z,100.00
2022-12-04T06:33:45.865Z,100.00
2022-12-04T06:36:49.372Z,100.00
2022-12-04T06:39:52.386Z,100.00
2022-12-04T06:42:56.305Z,100.00
2022-12-04T06:46:23.414Z,100.00
2022-12-04T06:49:34.409Z,100.00
2022-12-04T06:52:40.896Z,100.00
2022-12-04T06:55:55.119Z,100.00
2022-12-04T06:59:04.216Z,100.00
2022-12-04T07:02:09.291Z,100.00
2022-12-04T07:05:19.210Z,100.00
2022-12-04T07:08:22.864Z,100.00
2022-12-04T07:11:31.973Z,100.00
2022-12-04T07:14:46.159Z,100.00
2022-12-04T07:18:01.634Z,100.00
2022-12-04T07:21:07.441Z,100.00
2022-12-04T07:24:17.642Z,100.00
2022-12-04T07:27:24.396Z,100.00
2022-12-04T07:30:41.522Z,100.00
2022-12-04T07:33:51.233Z,100.00
2022-12-04T07:36:57.249Z,100.00
2022-12-04T07:40:04.244Z,100.00
2022-12-04T07:43:08.244Z,100.00
2022-12-04T07:46:16.476Z,100.00
2022-12-04T07:49:23.173Z,100.00
2022-12-04T07:52:29.811Z,100.00
2022-12-04T07:55:38.524Z,99.47
2022-12-04T07:58:44.409Z,99.33
2022-12-04T08:01:47.326Z,99.19
2022-12-04T08:04:51.685Z,99.22
2022-12-04T08:07:55.848Z,99.15
2022-12-04T08:11:01.495Z,98.49
2022-12-04T08:14:09.106Z,98.09
2022-12-04T08:17:15.367Z,97.75
2022-12-04T08:20:26.732Z,97.58
2022-12-04T08:23:36.229Z,97.36
2022-12-04T08:26:46.144Z,97.05
2022-12-04T08:29:56.832Z,96.70
2022-12-04T08:33:13.732Z,96.60
2022-12-04T08:36:26.447Z,96.55
2022-12-04T08:39:36.334Z,96.74
2022-12-04T08:42:49.655Z,96.77
2022-12-04T08:46:04.721Z,96.66
2022-12-04T08:49:22.402Z,96.92
2022-12-04T08:52:28.606Z,96.72
2022-12-04T08:55:35.088Z,96.60
2022-12-04T08:58:42.792Z,96.78
2022-12-04T09:01:51.453Z,96.83
2022-12-04T09:05:04.259Z,96.72
2022-12-04T09:08:11.313Z,96.48
2022-12-04T09:11:23.348Z,95.83
2022-12-04T09:14:36.388Z,95.46
2022-12-04T09:17:47.792Z,95.28
2022-12-04T09:21:02.315Z,94.81
2022-12-04T09:24:07.092Z,94.46
2022-12-04T09:27:18.141Z,94.16
2022-12-04T09:30:36.284Z,93.64
2022-12-04T09:33:42.840Z,93.04
2022-12-04T09:36:48.533Z,93.28
2022-12-04T09:39:56.456Z,93.21
2022-12-04T09:43:07.292Z,92.83
2022-12-04T09:46:19.259Z,92.27
2022-12-04T09:49:39.569Z,91.70
2022-12-04T09:53:04.619Z,91.97
2022-12-04T09:56:20.761Z,92.16
2022-12-04T09:59:32.342Z,91.56
2022-12-04T10:02:43.514Z,90.67
2022-12-04T10:06:19.376Z,90.75
2022-12-04T10:09:49.229Z,89.49
2022-12-04T10:13:49.238Z,88.68
2022-12-04T10:17:12.846Z,88.16
2022-12-04T10:20:49.139Z,87.18
2022-12-04T10:24:23.601Z,87.32
2022-12-04T10:27:51.281Z,87.22
2022-12-04T10:31:17.270Z,86.82
2022-12-04T10:34:28.703Z,86.67
2022-12-04T10:37:46.442Z,86.28
2022-12-04T10:41:14.574Z,86.23
2022-12-04T10:44:27.706Z,86.31
2022-12-04T10:47:44.573Z,85.87
2022-12-04T10:51:00.389Z,86.15
2022-12-04T10:54:32.877Z,85.43
2022-12-04T10:57:42.195Z,86.26
2022-12-04T11:00:58.298Z,85.91
2022-12-04T11:04:19.570Z,85.63
2022-12-04T11:07:29.296Z,84.90
2022-12-04T11:10:40.738Z,85.62
2022-12-04T11:13:48.598Z,84.57
2022-12-04T11:17:05.651Z,84.60
2022-12-04T11:20:18.341Z,83.94
2022-12-04T11:23:22.036Z,83.62
2022-12-04T11:26:39.181Z,82.84
2022-12-04T11:29:48.243Z,83.45
2022-12-04T11:32:56.324Z,83.25
2022-12-04T11:36:06.399Z,83.26
2022-12-04T11:39:13.478Z,82.64
2022-12-04T11:42:23.339Z,83.33
2022-12-04T11:45:29.562Z,82.95
2022-12-04T11:48:45.201Z,82.62
2022-12-04T11:52:18.821Z,82.86
2022-12-04T11:55:38.210Z,83.19
2022-12-04T11:59:04.380Z,82.74
2022-12-04T12:02:39.948Z,82.76
2022-12-04T12:05:49.466Z,82.66
2022-12-04T12:09:20.292Z,82.20
2022-12-04T12:12:57.341Z,82.00
2022-12-04T12:16:17.242Z,81.70
2022-12-04T12:19:55.458Z,82.24
2022-12-04T12:23:10.213Z,82.37
2022-12-04T12:26:17.383Z,81.83
2022-12-04T12:29:49.111Z,81.12
2022-12-04T12:33:12.179Z,81.01
2022-12-04T12:36:21.757Z,80.86
2022-12-04T12:39:39.283Z,81.00
2022-12-04T12:42:58.690Z,80.88
2022-12-04T12:46:42.129Z,80.93
2022-12-04T12:49:59.312Z,79.68
2022-12-04T12:53:26.202Z,79.91
2022-12-04T12:56:49.864Z,78.37
2022-12-04T13:00:02.410Z,79.08
2022-12-04T13:03:28.242Z,79.69
2022-12-04T13:06:40.503Z,79.14
2022-12-04T13:10:17.244Z,78.99
2022-12-04T13:13:50.102Z,79.83
2022-12-04T13:17:01.194Z,79.68
2022-12-04T13:20:32.101Z,79.97
2022-12-04T13:24:31.287Z,80.50
2022-12-04T13:28:00.708Z,80.91
2022-12-04T13:31:29.472Z,81.00
2022-12-04T13:35:06.201Z,81.08
2022-12-04T13:38:35.134Z,81.80
2022-12-04T13:41:46.518Z,81.80
2022-12-04T13:45:08.969Z,82.29
2022-12-04T13:48:16.142Z,82.32
2022-12-04T13:51:44.223Z,82.65
2022-12-04T13:55:00.086Z,82.88
2022-12-04T13:58:13.208Z,83.01
2022-12-04T14:01:30.990Z,83.24
2022-12-04T14:04:47.230Z,83.06
2022-12-04T14:08:08.024Z,83.69
2022-12-04T14:11:16.910Z,83.92
2022-12-04T14:14:32.278Z,84.07
2022-12-04T14:17:40.497Z,84.48
2022-12-04T14:20:45.379Z,85.03
2022-12-04T14:23:52.338Z,84.99
2022-12-04T14:27:15.597Z,85.12
2022-12-04T14:30:22.157Z,85.25
2022-12-04T14:33:32.812Z,85.16
2022-12-04T14:41:00.316Z,85.37
2022-12-04T14:44:41.354Z,85.34
2022-12-04T14:48:02.701Z,85.67
2022-12-04T14:51:09.223Z,85.90
2022-12-04T14:54:29.276Z,85.81
2022-12-04T14:57:54.881Z,85.81
2022-12-04T15:01:36.417Z,86.04
2022-12-04T15:04:49.270Z,86.27
2022-12-04T15:08:06.385Z,86.44
2022-12-04T15:11:44.324Z,86.64
2022-12-04T15:14:52.536Z,86.87
2022-12-04T15:18:09.732Z,87.39
2022-12-04T15:21:16.201Z,87.75
2022-12-04T15:24:26.600Z,87.80
2022-12-04T15:27:33.080Z,88.18
2022-12-04T15:30:42.569Z,88.41
2022-12-04T15:33:50.176Z,88.67
2022-12-04T15:37:07.304Z,88.53
2022-12-04T15:40:21.431Z,88.86
2022-12-04T15:43:43.966Z,89.26
2022-12-04T15:46:58.391Z,89.58
2022-12-04T15:50:19.311Z,89.93
2022-12-04T15:53:32.250Z,90.26
2022-12-04T15:56:37.185Z,90.20
2022-12-04T15:59:59.130Z,90.77
2022-12-04T16:03:36.332Z,91.20
2022-12-04T16:06:48.726Z,91.30
2022-12-04T16:10:03.262Z,91.56
2022-12-04T16:13:30.239Z,91.75
2022-12-04T16:16:50.109Z,91.35
2022-12-04T16:20:02.846Z,91.75
2022-12-04T16:23:08.136Z,92.00
2022-12-04T16:26:17.266Z,91.33
2022-12-04T16:29:23.186Z,91.82
2022-12-04T16:32:34.427Z,92.24
2022-12-04T16:35:50.115Z,92.33
2022-12-04T16:38:56.160Z,92.13
2022-12-04T16:42:25.131Z,92.57
2022-12-04T16:45:33.528Z,92.71
2022-12-04T16:48:43.444Z,92.89
2022-12-04T16:51:52.440Z,93.20
2022-12-04T16:54:58.494Z,93.69
2022-12-04T16:58:08.166Z,93.40
2022-12-04T17:01:26.732Z,93.77
2022-12-04T17:04:37.205Z,93.83
2022-12-04T17:07:43.802Z,94.57
2022-12-04T17:10:50.132Z,94.37
2022-12-04T17:13:52.913Z,94.75
2022-12-04T17:17:07.259Z,94.59
2022-12-04T17:20:28.065Z,94.70
2022-12-04T17:23:32.652Z,95.09
2022-12-04T17:26:38.375Z,95.10
2022-12-04T17:29:50.722Z,95.01
2022-12-04T17:32:57.196Z,95.26
2022-12-04T17:36:15.246Z,95.40
2022-12-04T17:39:21.181Z,95.55
2022-12-04T17:42:25.334Z,95.40
2022-12-04T17:45:33.188Z,95.36
2022-12-04T17:48:38.602Z,95.38
2022-12-04T17:51:52.074Z,95.78
2022-12-04T17:55:05.331Z,96.07
2022-12-04T17:58:13.497Z,96.01
2022-12-04T18:01:20.559Z,96.15
2022-12-04T18:04:25.255Z,96.12
2022-12-04T18:07:33.227Z,96.34
2022-12-04T18:10:42.956Z,96.32
2022-12-04T18:13:51.189Z,96.25
2022-12-04T18:17:06.243Z,96.61
2022-12-04T18:20:13.764Z,96.57
2022-12-04T18:23:31.181Z,96.79
2022-12-04T18:26:45.205Z,96.84
2022-12-04T18:29:53.623Z,96.93
2022-12-04T18:33:06.091Z,96.84
2022-12-04T18:36:28.584Z,96.93
2022-12-04T18:39:37.644Z,97.01
2022-12-04T18:42:41.933Z,96.95
2022-12-04T18:46:04.173Z,97.05
2022-12-04T18:49:13.160Z,96.68
2022-12-04T18:52:16.653Z,96.50
2022-12-04T18:55:24.376Z,96.45
2022-12-04T18:58:29.610Z,96.28
2022-12-04T19:01:35.364Z,95.76
2022-12-04T19:04:48.115Z,95.38
2022-12-04T19:07:54.224Z,95.18
2022-12-04T19:11:16.060Z,95.09
2022-12-04T19:14:37.188Z,94.53
2022-12-04T19:17:44.162Z,94.52
2022-12-04T19:20:53.162Z,94.30
2022-12-04T19:24:00.349Z,94.07
2022-12-04T19:27:13.471Z,93.88
2022-12-04T19:30:19.166Z,93.06
2022-12-04T19:33:34.399Z,93.14
2022-12-04T19:36:48.149Z,93.02
2022-12-04T19:40:02.390Z,92.92
2022-12-04T19:43:06.725Z,93.10
2022-12-04T19:46:15.885Z,93.14
2022-12-04T19:49:31.255Z,92.34
2022-12-04T19:52:40.462Z,92.84
2022-12-04T19:55:51.315Z,92.71
2022-12-04T19:58:57.439Z,92.53
2022-12-04T20:02:00.646Z,92.69
2022-12-04T20:05:12.162Z,92.63
2022-12-04T20:08:28.182Z,92.99
2022-12-04T20:11:36.200Z,92.97
2022-12-04T20:14:45.602Z,93.32
2022-12-04T20:17:48.701Z,93.35
2022-12-04T20:20:57.126Z,93.40
2022-12-04T20:24:11.482Z,93.49
2022-12-04T20:27:17.301Z,93.69
2022-12-04T20:30:26.232Z,93.83
2022-12-04T20:33:37.185Z,93.91
2022-12-04T20:36:47.166Z,94.18
2022-12-04T20:39:53.639Z,94.18
2022-12-04T20:43:07.055Z,94.40
2022-12-04T20:46:29.216Z,94.47
2022-12-04T20:49:51.110Z,94.50
2022-12-04T20:53:11.222Z,94.59
2022-12-04T20:56:17.229Z,95.00
2022-12-04T20:59:26.080Z,95.28
2022-12-04T21:02:37.082Z,95.28
2022-12-04T21:05:42.151Z,94.12
2022-12-04T21:08:56.130Z,91.98
2022-12-04T21:12:24.366Z,90.79
2022-12-04T21:15:47.417Z,90.12
2022-12-04T21:18:52.129Z,88.46
2022-12-04T21:21:58.430Z,88.20
2022-12-04T21:25:15.113Z,88.53
2022-12-04T21:28:18.700Z,88.51
2022-12-04T21:31:22.271Z,88.77
2022-12-04T21:34:26.472Z,89.08
2022-12-04T21:37:31.156Z,89.17
2022-12-04T21:40:42.096Z,89.47
2022-12-04T21:43:47.177Z,89.97
2022-12-04T21:46:51.237Z,87.80
2022-12-04T21:49:56.676Z,86.97
2022-12-04T21:53:06.069Z,87.37
2022-12-04T21:56:12.421Z,87.29
2022-12-04T21:59:18.095Z,86.49
2022-12-04T22:02:25.346Z,85.98
2022-12-04T22:05:32.319Z,86.15
2022-12-04T22:08:38.343Z,86.92
2022-12-04T22:11:48.490Z,86.58
2022-12-04T22:14:53.259Z,86.95
2022-12-04T22:17:56.786Z,87.14
2022-12-04T22:21:04.333Z,87.38
2022-12-04T22:24:10.669Z,87.85
2022-12-04T22:27:16.153Z,88.03
2022-12-04T22:30:19.369Z,88.07
2022-12-04T22:33:23.293Z,88.24
2022-12-04T22:36:32.043Z,88.34
2022-12-04T22:39:35.105Z,88.43
2022-12-04T22:42:39.386Z,88.36
2022-12-04T22:45:42.652Z,88.37
2022-12-04T22:48:46.325Z,88.42
2022-12-04T22:51:49.312Z,88.33
2022-12-04T22:54:54.130Z,88.51
2022-12-04T22:57:57.128Z,88.77
2022-12-04T23:01:00.827Z,89.08
2022-12-04T23:04:03.831Z,89.18
2022-12-04T23:07:09.077Z,89.29
2022-12-04T23:10:13.110Z,88.98
2022-12-04T23:13:16.024Z,88.97
2022-12-04T23:16:20.789Z,88.90
2022-12-04T23:19:25.457Z,89.07
2022-12-04T23:22:28.548Z,88.92
2022-12-04T23:25:31.346Z,89.14
2022-12-04T23:28:34.170Z,89.40
2022-12-04T23:31:39.192Z,89.57
2022-12-04T23:34:41.839Z,89.35
2022-12-04T23:37:46.171Z,89.11
2022-12-04T23:40:48.850Z,89.21
2022-12-04T23:43:53.448Z,89.12
2022-12-04T23:46:56.389Z,88.97
2022-12-04T23:49:59.818Z,88.74
2022-12-04T23:53:03.207Z,88.96
2022-12-04T23:56:32.874Z,88.87
2022-12-04T23:59:36.279Z,88.92
